createdAt,value
2023-05-09T00:07:22.932Z,12.48
2023-05-09T00:22:25.621Z,12.27
2023-05-09T00:37:27.580Z,12.31
2023-05-09T00:52:30.841Z,12.15
2023-05-09T01:07:50.464Z,12.08
2023-05-09T01:23:02.629Z,12.11
2023-05-09T01:38:12.969Z,12.06
2023-05-09T01:53:18.146Z,12.03
2023-05-09T02:08:21.693Z,11.94
2023-05-09T02:23:24.468Z,11.85
2023-05-09T02:38:27.646Z,11.74
2023-05-09T02:53:29.999Z,11.69
2023-05-09T03:08:32.365Z,11.79
2023-05-09T03:23:35.313Z,11.86
2023-05-09T03:38:37.483Z,11.89
2023-05-09T03:53:39.578Z,12.04
2023-05-09T04:08:44.624Z,12.32
2023-05-09T04:23:48.207Z,12.32
2023-05-09T04:38:51.156Z,12.34
2023-05-09T04:53:53.081Z,12.63
2023-05-09T05:08:55.185Z,12.96
2023-05-09T05:23:57.561Z,13.02
2023-05-09T05:38:59.624Z,13.15
2023-05-09T05:54:01.786Z,13.30
2023-05-09T06:09:06.649Z,13.43
2023-05-09T06:24:16.564Z,13.70
2023-05-09T06:39:25.733Z,13.89
2023-05-09T06:54:27.917Z,14.51
2023-05-09T07:09:30.060Z,15.31
2023-05-09T07:24:39.567Z,15.59
2023-05-09T07:39:41.947Z,15.55
2023-05-09T07:54:46.994Z,16.17
2023-05-09T08:09:49.673Z,16.41
2023-05-09T08:24:54.285Z,16.32
2023-05-09T08:39:56.237Z,16.27
2023-05-09T08:54:59.031Z,17.10
2023-05-09T09:10:03.409Z,16.49
2023-05-09T09:25:06.166Z,15.48
2023-05-09T09:40:10.510Z,14.94
2023-05-09T09:55:13.511Z,14.24
2023-05-09T10:10:16.003Z,14.44
2023-05-09T10:25:21.887Z,15.06
2023-05-09T10:40:24.055Z,15.44
2023-05-09T10:55:40.164Z,15.85
2023-05-09T11:10:45.458Z,15.96
2023-05-09T11:25:49.135Z,16.02
2023-05-09T11:40:54.831Z,15.48
2023-05-09T11:55:58.606Z,15.09
2023-05-09T12:11:12.565Z,15.21
2023-05-09T12:26:15.755Z,15.13
2023-05-09T12:41:35.008Z,14.92
2023-05-09T12:56:39.641Z,14.92
2023-05-09T13:28:12.485Z,14.76
2023-05-09T13:43:14.621Z,14.90
2023-05-09T13:58:17.057Z,14.96
2023-05-09T14:13:19.781Z,14.87
2023-05-09T14:28:22.287Z,14.84
2023-05-09T14:43:24.536Z,14.65
2023-05-09T14:58:28.150Z,14.55
2023-05-09T15:13:30.296Z,14.48
2023-05-09T15:28:32.598Z,14.29
2023-05-09T15:43:34.818Z,14.52
2023-05-09T15:59:11.696Z,14.39
2023-05-09T16:14:14.185Z,14.21
2023-05-09T16:30:08.965Z,14.20
2023-05-09T16:45:26.945Z,14.00
2023-05-09T17:00:29.259Z,13.86
2023-05-09T17:15:31.754Z,13.75
2023-05-09T17:30:34.120Z,13.68
2023-05-09T17:45:36.253Z,13.42
2023-05-09T18:00:38.794Z,13.39
2023-05-09T18:15:41.600Z,13.38
2023-05-09T18:30:44.407Z,13.23
2023-05-09T18:45:48.389Z,12.83
2023-05-09T19:00:50.733Z,12.72
2023-05-09T19:15:52.865Z,12.48
2023-05-09T19:30:57.593Z,12.35
2023-05-09T19:46:00.514Z,12.29
2023-05-09T20:01:02.905Z,12.24
2023-05-09T20:16:04.983Z,12.13
2023-05-09T20:31:07.034Z,12.05
2023-05-09T20:46:10.135Z,11.70
2023-05-09T21:01:12.617Z,11.42
2023-05-09T21:16:15.435Z,11.40
2023-05-09T21:31:25.236Z,11.43
2023-05-09T21:46:27.793Z,11.49
2023-05-09T22:01:32.252Z,11.42
2023-05-09T22:16:34.295Z,11.30
2023-05-09T22:31:37.201Z,11.34
2023-05-09T22:46:39.313Z,11.21
2023-05-09T23:01:44.521Z,11.06
2023-05-09T23:16:47.511Z,10.81
2023-05-09T23:31:50.369Z,10.71
2023-05-09T23:46:52.854Z,10.73
